International Virtual Aviation Organisation

Russian Federation and Kazakhstan MCD

 

Карточка аэропорта UAAT

Внимание!
Информация на этой странице в стадии наполнения.
Если вы не увидели какой-то информации, или заметили неточность - пожалуйста сообщите нам!
Спасибо!
Команда RU-STAFF
Название аэропортаТалдыкорган
Название аэропорта (англ.)Taldykorgan
Превышение1946 ft. (593.1 m.)
Координаты45°6.9179999999999', 78°26.46'
Высота перехода1200
Эшелон переходаFL70
Коды ответчика3501-3517, 3401-3427
Зона ОрВДАлматы РПИ (UAAA)
Данные METARUAAT 250500Z VRB01MPS 9999 NSC M08/M12 Q1027 R20/920260 NOSIG RMK QFE718/0957
Проноз погоды (TAF)NODATA
NOTAMshow/hide NOTAM
AWOS   TABLE

Информация о ВПП


Диспетчерские позиции

Позывной Наименование органа УВД Частота
UAAT_TWRТалдыкорган-Вышка127.3



Спутниковое изображение